createdAt,value
2023-05-11T00:03:29.132Z,69
2023-05-11T00:18:29.006Z,70
2023-05-11T00:33:28.919Z,70
2023-05-11T00:48:28.984Z,70
2023-05-11T01:03:28.936Z,71
2023-05-11T01:18:28.967Z,71
2023-05-11T01:33:28.841Z,72
2023-05-11T01:48:28.890Z,72
2023-05-11T02:03:29.026Z,72
2023-05-11T02:18:28.851Z,72
2023-05-11T02:33:28.787Z,72
2023-05-11T02:48:28.791Z,72
2023-05-11T03:03:28.829Z,72
2023-05-11T03:18:28.756Z,73
2023-05-11T03:33:28.723Z,74
2023-05-11T03:48:28.718Z,74
2023-05-11T04:03:28.882Z,74
2023-05-11T04:18:28.698Z,74
2023-05-11T04:33:28.620Z,74
2023-05-11T04:48:28.710Z,75
2023-05-11T05:03:28.616Z,74
2023-05-11T05:18:28.663Z,74
2023-05-11T05:33:28.539Z,75
2023-05-11T05:48:28.565Z,75
2023-05-11T06:03:29.570Z,75
2023-05-11T06:18:28.556Z,73
2023-05-11T06:33:28.451Z,71
2023-05-11T06:48:28.469Z,70
2023-05-11T07:03:28.415Z,69
2023-05-11T07:18:28.419Z,69
2023-05-11T07:33:28.368Z,67
2023-05-11T07:48:28.383Z,60
2023-05-11T08:03:28.322Z,62
2023-05-11T08:18:28.366Z,63
2023-05-11T08:33:36.451Z,64
2023-05-11T08:48:28.262Z,65
2023-05-11T09:03:28.204Z,65
2023-05-11T09:18:28.256Z,64
2023-05-11T09:33:28.152Z,63
2023-05-11T09:48:28.182Z,63
2023-05-11T10:03:28.217Z,62
2023-05-11T10:18:28.165Z,62
2023-05-11T10:33:28.065Z,61
2023-05-11T10:48:28.054Z,61
2023-05-11T11:03:28.012Z,61
2023-05-11T11:18:28.092Z,62
2023-05-11T11:33:27.974Z,61
2023-05-11T11:48:27.965Z,60
2023-05-11T12:03:28.017Z,61
2023-05-11T12:18:27.976Z,66
2023-05-11T12:33:27.888Z,64
2023-05-11T12:48:27.894Z,62
2023-05-11T13:03:27.946Z,62
2023-05-11T13:18:27.854Z,60
2023-05-11T13:33:27.794Z,60
2023-05-11T13:48:27.795Z,59
2023-05-11T14:03:27.903Z,62
2023-05-11T14:18:27.910Z,61
2023-05-11T14:33:27.698Z,63
2023-05-11T14:48:27.685Z,65
2023-05-11T15:03:27.673Z,65
2023-05-11T15:18:27.675Z,66
2023-05-11T15:33:27.624Z,66
2023-05-11T15:48:27.595Z,67
2023-05-11T16:03:27.689Z,67
2023-05-11T16:18:27.553Z,72
2023-05-11T16:33:27.533Z,76
2023-05-11T16:48:27.526Z,79
2023-05-11T17:03:27.588Z,81
2023-05-11T17:18:27.506Z,82
2023-05-11T17:33:27.454Z,83
2023-05-11T17:48:27.478Z,84
2023-05-11T18:03:27.457Z,85
2023-05-11T18:18:27.427Z,86
2023-05-11T18:33:27.346Z,87
2023-05-11T18:48:27.381Z,87
2023-05-11T19:03:27.378Z,88
2023-05-11T19:18:27.356Z,88
2023-05-11T19:33:27.261Z,89
2023-05-11T19:48:27.288Z,89
2023-05-11T20:03:28.823Z,89
2023-05-11T20:18:27.279Z,89
2023-05-11T20:48:38.978Z,90
2023-05-11T21:03:27.270Z,90
2023-05-11T21:18:27.158Z,90
2023-05-11T21:33:27.123Z,91
2023-05-11T21:48:27.143Z,91
2023-05-11T22:03:27.194Z,91
2023-05-11T22:18:27.157Z,91
2023-05-11T22:33:27.039Z,91
2023-05-11T22:48:27.091Z,92
2023-05-11T23:03:27.040Z,92
2023-05-11T23:18:27.214Z,92
2023-05-11T23:33:27.000Z,92
2023-05-11T23:48:27.031Z,92
